Time;durP1;ratioP1;P1;durP2;ratioP2;P2;SDS_P1;SDS_P2;PMS_P1;PMS_P2;Temp;Humidity;BMP_temperature;BMP_pressure;BME280_temperature;BME280_humidity;BME280_pressure;Samples;Min_cycle;Max_cycle;Signal;HPM_P1;HPM_P2
2022/08/23 00:00:28;;;;;;;24.75;5.95;;;;;;;22.96;39.83;100568.60;1729831;81;21378;-55
2022/08/23 00:03:33;;;;;;;27.50;4.75;;;;;;;22.95;39.85;100571.65;1729303;82;21209;-55
2022/08/23 00:06:39;;;;;;;38.98;6.20;;;;;;;22.93;39.88;100572.47;1746303;81;21247;-56
2022/08/23 00:09:47;;;;;;;23.57;5.15;;;;;;;22.91;39.92;100569.08;1728392;81;21200;-56
2022/08/23 00:12:53;;;;;;;22.77;6.58;;;;;;;22.89;39.96;100572.66;1745644;82;21188;-56
2022/08/23 00:16:02;;;;;;;21.87;4.97;;;;;;;22.87;39.97;100571.52;1745575;81;21272;-57
2022/08/23 00:19:09;;;;;;;24.77;5.50;;;;;;;22.86;40.01;100571.77;1745994;82;21220;-55
2022/08/23 00:22:16;;;;;;;21.68;4.83;;;;;;;22.83;40.05;100570.88;1689113;85;21347;-55
2022/08/23 00:25:23;;;;;;;26.93;5.10;;;;;;;22.82;40.07;100577.55;1746710;81;21212;-57
2022/08/23 00:28:30;;;;;;;16.00;5.10;;;;;;;22.81;40.11;100582.84;1745838;82;21216;-57
2022/08/23 00:31:35;;;;;;;21.75;5.33;;;;;;;22.79;40.13;100586.42;1745292;81;21205;-55
2022/08/23 00:34:41;;;;;;;32.90;5.53;;;;;;;22.78;40.17;100587.53;1745188;81;21212;-57
2022/08/23 00:37:48;;;;;;;27.67;4.95;;;;;;;22.78;40.21;100605.67;1723927;82;21255;-57
2022/08/23 00:40:58;;;;;;;26.05;5.62;;;;;;;22.76;40.22;100596.70;1744506;81;21406;-58
2022/08/23 00:47:40;;;;;;;25.43;4.67;;;;;;;22.76;40.28;100600.88;1745305;82;21229;-55
2022/08/23 00:50:52;;;;;;;20.75;5.20;;;;;;;22.74;40.33;100603.92;1745401;81;21462;-57
2022/08/23 00:54:04;;;;;;;26.85;5.75;;;;;;;22.72;40.33;100603.32;1745148;82;21224;-55
2022/08/23 00:57:18;;;;;;;16.12;4.37;;;;;;;22.69;40.37;100608.01;1745343;82;21256;-55
2022/08/23 01:00:24;;;;;;;31.77;4.53;;;;;;;22.67;40.41;100615.81;1745380;81;21405;-57
2022/08/23 01:03:32;;;;;;;21.50;4.92;;;;;;;22.65;40.45;100619.39;1745487;81;21205;-57
2022/08/23 01:07:22;;;;;;;24.00;7.67;;;;;;;22.63;40.52;100620.75;1733032;81;21313;-57
2022/08/23 01:10:42;;;;;;;30.70;7.17;;;;;;;22.60;40.54;100617.88;1729407;81;21237;-57
2022/08/23 01:14:05;;;;;;;27.87;5.10;;;;;;;22.58;40.61;100626.22;1729890;82;21217;-56
2022/08/23 01:17:24;;;;;;;24.95;5.40;;;;;;;22.55;40.64;100617.77;1729833;82;21162;-56
2022/08/23 01:20:32;;;;;;;33.83;6.03;;;;;;;22.55;40.70;100630.91;1729295;81;21213;-56
2022/08/23 01:23:59;;;;;;;28.98;5.65;;;;;;;22.53;40.75;100628.36;1729246;82;21387;-57
2022/08/23 01:27:05;;;;;;;25.40;5.60;;;;;;;22.51;40.79;100630.52;1729743;82;21237;-56
2022/08/23 01:30:15;;;;;;;24.43;6.08;;;;;;;22.48;40.83;100628.76;1729719;81;21256;-56
2022/08/23 01:33:20;;;;;;;24.35;4.78;;;;;;;22.47;40.87;100632.66;1711145;82;21253;-57
2022/08/23 01:36:27;;;;;;;28.38;5.15;;;;;;;22.45;40.92;100643.20;1729656;81;21252;-57
2022/08/23 01:39:33;;;;;;;23.92;5.28;;;;;;;22.43;40.96;100640.66;1729786;82;21201;-56
2022/08/23 01:42:40;;;;;;;22.20;5.25;;;;;;;22.41;41.00;100642.84;1729331;82;21339;-56
2022/08/23 01:45:45;;;;;;;25.57;4.45;;;;;;;22.39;41.04;100642.23;1729247;81;21221;-55
2022/08/23 01:48:54;;;;;;;20.60;5.22;;;;;;;22.36;41.10;100644.69;1729635;82;21210;-57
2022/08/23 01:52:02;;;;;;;17.25;4.92;;;;;;;22.35;41.15;100640.19;1729451;81;21265;-56
2022/08/23 01:55:09;;;;;;;30.30;5.53;;;;;;;22.33;41.17;100645.16;1729325;81;21269;-56
2022/08/23 01:58:14;;;;;;;29.20;6.05;;;;;;;22.31;41.22;100644.02;1729284;82;21197;-55
2022/08/23 02:01:21;;;;;;;20.30;5.35;;;;;;;22.32;41.27;100649.05;1729177;81;21264;-56
2022/08/23 02:04:27;;;;;;;25.88;5.20;;;;;;;22.29;41.31;100647.62;1729317;82;21197;-56
2022/08/23 02:07:37;;;;;;;15.95;5.47;;;;;;;22.28;41.36;100653.44;1729748;81;21288;-57
2022/08/23 02:10:44;;;;;;;31.00;6.15;;;;;;;22.27;41.39;100653.12;1712011;83;21217;-57
2022/08/23 02:13:51;;;;;;;27.73;4.80;;;;;;;22.24;41.45;100650.29;1728899;83;21228;-57
2022/08/23 02:17:00;;;;;;;21.30;5.12;;;;;;;22.21;41.49;100657.19;1728799;81;21260;-56
2022/08/23 02:20:07;;;;;;;17.12;4.62;;;;;;;22.17;41.54;100658.78;1728820;81;21209;-56
2022/08/23 02:23:13;;;;;;;30.95;6.10;;;;;;;22.14;41.56;100655.09;1728900;83;21201;-57
2022/08/23 02:26:22;;;;;;;33.98;5.55;;;;;;;22.11;41.60;100661.70;1728857;81;21341;-56
2022/08/23 02:29:34;;;;;;;20.82;4.72;;;;;;;22.05;41.64;100662.14;1728832;83;21217;-55
2022/08/23 02:32:42;;;;;;;34.18;6.55;;;;;;;22.00;41.68;100659.23;1728804;83;21206;-56
2022/08/23 02:35:49;;;;;;;23.67;5.30;;;;;;;21.94;41.70;100672.77;1728845;81;21193;-55
2022/08/23 02:38:54;;;;;;;24.47;5.17;;;;;;;21.88;41.76;100674.27;1728942;83;21272;-56
2022/08/23 02:42:01;;;;;;;25.60;5.78;;;;;;;21.80;41.79;100683.81;1729209;81;21204;-56
2022/08/23 02:45:10;;;;;;;23.42;5.47;;;;;;;21.74;41.84;100683.93;1728799;81;21233;-56
2022/08/23 02:48:16;;;;;;;22.67;6.33;;;;;;;21.66;41.90;100689.30;1728907;83;21205;-57
2022/08/23 02:51:25;;;;;;;28.75;5.40;;;;;;;21.57;41.96;100702.42;1728952;81;21197;-56
2022/08/23 02:54:32;;;;;;;30.20;5.72;;;;;;;21.48;42.02;100702.48;1728821;83;21240;-56
2022/08/23 02:57:38;;;;;;;27.75;6.28;;;;;;;21.39;42.06;100706.14;1728920;83;21197;-57
2022/08/23 03:00:44;;;;;;;27.37;6.10;;;;;;;21.30;42.14;100703.39;1728858;81;21220;-55
2022/08/23 03:03:51;;;;;;;19.92;5.10;;;;;;;21.24;42.23;100715.49;1728815;83;21746;-56
2022/08/23 03:06:59;;;;;;;31.90;5.85;;;;;;;21.18;42.29;100712.27;1728895;82;21296;-57
2022/08/23 03:10:05;;;;;;;28.05;5.75;;;;;;;21.12;42.37;100715.97;1697729;83;21241;-57
2022/08/23 03:13:13;;;;;;;26.52;5.92;;;;;;;21.08;42.46;100722.25;1671754;85;21197;-57
2022/08/23 03:16:22;;;;;;;30.23;5.95;;;;;;;21.04;42.51;100723.27;1676582;84;21240;-56
2022/08/23 03:19:27;;;;;;;30.08;5.65;;;;;;;20.99;42.58;100718.97;1677345;85;21213;-56
2022/08/23 03:22:33;;;;;;;32.05;6.47;;;;;;;20.95;42.64;100721.87;1673281;85;21196;-56
2022/08/23 03:25:40;;;;;;;21.97;5.58;;;;;;;20.91;42.69;100721.18;1673139;83;21264;-57
2022/08/23 03:28:49;;;;;;;21.68;5.12;;;;;;;20.87;42.79;100718.02;1656752;86;21229;-56
2022/08/23 03:31:57;;;;;;;23.70;5.22;;;;;;;20.85;42.89;100724.91;1646686;86;21236;-56
2022/08/23 03:35:03;;;;;;;23.98;5.25;;;;;;;20.83;42.98;100734.89;1697496;83;21233;-56
2022/08/23 03:38:12;;;;;;;29.82;6.08;;;;;;;20.82;43.06;100742.91;1626820;85;21272;-57
2022/08/23 03:41:22;;;;;;;27.52;6.05;;;;;;;20.83;43.13;100750.73;1672749;83;21773;-55
2022/08/23 03:44:28;;;;;;;26.48;6.22;;;;;;;20.84;43.24;100750.48;1656891;85;21213;-56
2022/08/23 03:47:35;;;;;;;22.95;5.83;;;;;;;20.86;43.34;100754.44;1674688;85;21216;-54
2022/08/23 03:50:41;;;;;;;27.82;5.97;;;;;;;20.89;43.40;100749.78;1674840;83;21319;-55
2022/08/23 03:53:50;;;;;;;20.97;5.70;;;;;;;20.91;43.48;100755.45;1675244;85;21194;-56
2022/08/23 03:57:08;;;;;;;25.48;6.15;;;;;;;20.94;43.58;100757.76;1676745;84;21240;-56
2022/08/23 04:00:16;;;;;;;32.53;6.78;;;;;;;20.99;43.65;100766.30;1671902;84;21748;-55
2022/08/23 04:03:23;;;;;;;26.17;5.60;;;;;;;21.03;43.72;100771.69;1656813;86;21184;-56
2022/08/23 04:06:31;;;;;;;19.23;5.05;;;;;;;21.08;43.79;100777.41;1672865;85;21280;-55
2022/08/23 04:09:37;;;;;;;25.65;5.72;;;;;;;21.14;43.85;100775.60;1683462;81;21229;-55
2022/08/23 04:12:44;;;;;;;33.20;6.22;;;;;;;21.18;43.94;100777.71;1696029;84;21205;-57
2022/08/23 04:15:55;;;;;;;23.90;5.90;;;;;;;21.24;43.99;100780.08;1695945;83;21273;-56
2022/08/23 04:19:04;;;;;;;23.75;5.22;;;;;;;21.30;44.08;100781.91;1665721;85;21261;-58
2022/08/23 04:22:21;;;;;;;22.15;5.97;;;;;;;21.37;44.14;100782.69;1696213;84;21262;-56
2022/08/23 04:25:30;;;;;;;27.95;6.15;;;;;;;21.45;44.21;100787.92;1696190;83;21225;-56
2022/08/23 04:28:37;;;;;;;27.67;6.62;;;;;;;21.53;44.26;100796.78;1681361;84;21166;-55
2022/08/23 04:31:45;;;;;;;19.12;5.47;;;;;;;21.62;44.35;100796.77;1696156;83;21371;-56
2022/08/23 04:34:57;;;;;;;22.48;5.78;;;;;;;21.70;44.38;100802.01;1696171;83;21324;-57
2022/08/23 04:38:04;;;;;;;31.70;5.35;;;;;;;21.79;44.42;100803.39;1696095;84;21229;-57
2022/08/23 04:44:37;;;;;;;21.45;5.10;;;;;;;21.98;44.51;100802.22;1696101;84;21182;-56
2022/08/23 04:47:44;;;;;;;21.45;5.10;;;;;;;22.08;44.54;100800.23;1696139;84;21351;-56
2022/08/23 04:50:51;;;;;;;21.77;6.30;;;;;;;22.16;44.57;100807.71;1697103;83;21725;-56
2022/08/23 04:53:58;;;;;;;29.37;5.53;;;;;;;22.25;44.58;100810.97;1665717;86;21261;-56
2022/08/23 04:57:06;;;;;;;27.07;5.78;;;;;;;22.33;44.60;100802.78;1692821;84;21747;-56
2022/08/23 05:00:23;;;;;;;23.30;5.92;;;;;;;22.41;44.63;100808.86;1656242;85;21753;-55
2022/08/23 05:03:33;;;;;;;24.60;8.33;;;;;;;22.50;44.63;100810.75;1693409;84;21222;-55
2022/08/23 05:06:46;;;;;;;27.62;6.08;;;;;;;22.60;44.64;100805.42;1654371;85;21885;-54
2022/08/23 05:09:58;;;;;;;17.73;5.10;;;;;;;22.70;44.65;100814.04;1696781;80;21241;-54
2022/08/23 05:13:09;;;;;;;25.80;4.53;;;;;;;22.80;44.68;100808.70;1677283;85;21241;-53
2022/08/23 05:16:17;;;;;;;15.23;4.75;;;;;;;22.91;44.66;100807.83;1679922;84;21272;-53
2022/08/23 05:19:28;;;;;;;19.20;4.83;;;;;;;23.04;44.64;100810.35;1680862;85;21288;-53
2022/08/23 05:22:41;;;;;;;17.37;4.40;;;;;;;23.18;44.67;100815.95;1672383;84;21257;-53
2022/08/23 05:29:14;;;;;;;24.63;4.37;;;;;;;23.42;44.58;100816.22;1644106;85;21971;-54
2022/08/23 05:32:32;;;;;;;29.32;4.92;;;;;;;23.53;44.52;100823.70;1645633;86;21298;-57
2022/08/23 05:35:44;;;;;;;25.68;4.58;;;;;;;23.63;44.51;100828.07;1634228;86;21220;-52
2022/08/23 05:38:52;;;;;;;13.45;4.17;;;;;;;23.74;44.46;100831.36;1645633;84;21211;-52
2022/08/23 05:41:59;;;;;;;13.32;4.78;;;;;;;23.86;44.39;100841.95;1661321;85;21271;-52
2022/08/23 05:45:09;;;;;;;20.48;4.12;;;;;;;23.98;44.33;100848.89;1672730;84;21223;-52
2022/08/23 05:48:19;;;;;;;15.65;3.72;;;;;;;24.06;44.27;100848.48;1672098;84;21208;-51
2022/08/23 05:51:36;;;;;;;19.48;4.17;;;;;;;24.13;44.20;100847.23;1674593;84;21727;-50
2022/08/23 05:54:47;;;;;;;23.95;4.40;;;;;;;24.25;44.17;100847.99;1662636;85;21409;-52
2022/08/23 05:58:10;;;;;;;18.37;4.08;;;;;;;24.35;44.07;100849.58;1672535;84;21217;-51
2022/08/23 06:01:20;;;;;;;15.08;4.20;;;;;;;24.45;43.99;100848.33;1680214;84;21282;-52
2022/08/23 06:04:29;;;;;;;18.00;4.37;;;;;;;24.56;43.91;100845.98;1667554;84;21224;-51
2022/08/23 06:07:41;;;;;;;26.85;3.52;;;;;;;24.66;43.84;100843.89;1697387;83;21205;-53
2022/08/23 06:10:56;;;;;;;17.50;3.75;;;;;;;24.73;43.70;100851.06;1664012;85;21769;-52
2022/08/23 06:14:10;;;;;;;21.17;3.85;;;;;;;24.83;43.65;100844.19;1667602;85;21766;-51
2022/08/23 06:17:18;;;;;;;18.52;3.65;;;;;;;24.93;43.56;100842.09;1663968;86;21229;-52
2022/08/23 06:20:25;;;;;;;23.57;4.40;;;;;;;25.06;43.49;100844.52;1668920;85;21200;-49
2022/08/23 06:23:33;;;;;;;14.68;3.98;;;;;;;25.14;43.37;100853.02;1670364;84;21376;-52
2022/08/23 06:26:46;;;;;;;13.38;3.60;;;;;;;25.20;43.25;100847.81;1661576;85;21283;-49
2022/08/23 06:29:58;;;;;;;14.68;3.92;;;;;;;25.32;43.14;100854.13;1675288;82;21263;-50
2022/08/23 06:33:11;;;;;;;15.25;3.85;;;;;;;25.38;43.04;100857.30;1681068;85;21787;-51
2022/08/23 06:36:26;;;;;;;21.07;7.12;;;;;;;25.45;42.98;100863.58;1632922;86;21258;-51
2022/08/23 06:39:40;;;;;;;14.23;4.83;;;;;;;25.54;42.88;100876.02;1656918;86;21209;-51
2022/08/23 06:43:05;;;;;;;16.42;4.62;;;;;;;25.61;42.79;100878.09;1628114;86;21281;-50
2022/08/23 06:46:20;;;;;;;25.37;4.28;;;;;;;25.68;42.68;100870.30;1646886;86;21276;-52
2022/08/23 06:49:30;;;;;;;13.28;3.77;;;;;;;25.76;42.61;100876.30;1661155;86;21194;-53
2022/08/23 06:52:38;;;;;;;18.52;4.03;;;;;;;25.84;42.54;100871.63;1647126;86;21548;-53
2022/08/23 06:55:48;;;;;;;21.07;4.03;;;;;;;25.93;42.42;100876.18;1623114;86;21789;-52
2022/08/23 06:59:07;;;;;;;10.88;3.12;;;;;;;25.99;42.30;100875.15;1670004;83;21239;-55
2022/08/23 07:02:24;;;;;;;16.42;4.20;;;;;;;26.03;42.21;100882.80;1694368;83;21791;-50
2022/08/23 07:05:50;;;;;;;16.02;3.60;;;;;;;26.12;42.15;100882.61;1640172;87;21619;-54
2022/08/23 07:09:01;;;;;;;13.22;3.98;;;;;;;26.23;42.05;100877.37;1674350;85;21564;-52
2022/08/23 07:12:14;;;;;;;12.37;3.80;;;;;;;26.31;41.94;100882.51;1677972;85;21272;-53
2022/08/23 07:15:25;;;;;;;19.00;4.30;;;;;;;26.39;41.88;100878.36;1665975;85;21795;-53
2022/08/23 07:18:44;;;;;;;9.80;3.85;;;;;;;26.48;41.81;100880.41;1654556;85;21252;-53
2022/08/23 07:21:54;;;;;;;9.05;3.83;;;;;;;26.59;41.71;100875.73;1683011;83;21235;-55
2022/08/23 07:25:05;;;;;;;13.85;3.72;;;;;;;26.68;41.65;100855.03;1688930;84;21278;-53
2022/08/23 07:28:22;;;;;;;14.58;3.92;;;;;;;26.78;41.54;100884.06;1675149;85;21232;-53
2022/08/23 07:31:35;;;;;;;14.18;3.65;;;;;;;26.89;41.47;100872.33;1688303;84;21211;-54
2022/08/23 07:34:43;;;;;;;21.33;4.30;;;;;;;26.99;41.38;100871.82;1683305;85;21211;-55
2022/08/23 07:37:51;;;;;;;14.03;4.03;;;;;;;27.07;41.24;100875.52;1660317;86;21241;-53
2022/08/23 07:41:07;;;;;;;17.15;4.33;;;;;;;27.14;41.12;100876.14;1665470;85;21528;-52
2022/08/23 07:44:14;;;;;;;13.40;4.50;;;;;;;27.23;41.07;100868.02;1674421;85;21759;-53
2022/08/23 07:47:27;;;;;;;;;;;;;;;27.32;40.96;100868.66;1662718;86;21203;-58
2022/08/23 07:50:42;;;;;;;13.98;4.90;;;;;;;27.41;40.86;100858.60;1682967;83;20306;-52
2022/08/23 07:53:53;;;;;;;14.10;4.10;;;;;;;27.53;40.77;100859.75;1654907;86;21256;-52
2022/08/23 07:57:07;;;;;;;17.95;3.98;;;;;;;27.63;40.64;100863.46;1661775;85;21238;-55
2022/08/23 08:00:20;;;;;;;12.10;3.77;;;;;;;27.77;40.58;100857.59;1642999;87;21237;-54
2022/08/23 08:03:30;;;;;;;17.02;4.08;;;;;;;27.89;40.45;100863.02;1676144;83;21725;-53
2022/08/23 08:06:49;;;;;;;14.50;3.98;;;;;;;27.99;40.32;100857.38;1686058;83;21295;-54
2022/08/23 08:09:59;;;;;;;17.32;4.47;;;;;;;28.10;40.23;100863.90;1666970;83;21329;-54
2022/08/23 08:13:09;;;;;;;15.88;3.62;;;;;;;28.24;40.08;100865.86;1663084;85;21253;-54
2022/08/23 08:16:34;;;;;;;10.18;3.02;;;;;;;28.35;39.97;100861.92;1681005;85;21240;-53
2022/08/23 08:19:42;;;;;;;14.60;3.72;;;;;;;28.48;39.83;100870.44;1655398;86;21667;-53
2022/08/23 08:23:00;;;;;;;11.45;4.12;;;;;;;28.59;39.66;100863.09;1670045;83;21222;-54
2022/08/23 08:26:24;;;;;;;14.95;3.75;;;;;;;28.69;39.55;100865.05;1670540;84;21769;-53
2022/08/23 08:29:39;;;;;;;12.35;3.30;;;;;;;28.81;39.36;100866.45;1677885;83;21814;-53
2022/08/23 08:32:48;;;;;;;18.00;3.75;;;;;;;28.94;39.20;100857.96;1663077;84;21790;-54
2022/08/23 08:35:57;;;;;;;24.20;4.50;;;;;;;29.03;39.06;100853.45;1647148;86;21304;-53
2022/08/23 08:39:07;;;;;;;11.85;3.17;;;;;;;29.14;38.94;100852.33;1666043;86;21244;-54
2022/08/23 08:42:36;;;;;;;9.65;3.05;;;;;;;29.22;38.73;100848.33;1653660;86;21212;-53
2022/08/23 08:46:13;;;;;;;24.12;4.95;;;;;;;29.29;38.55;100857.08;1655271;86;21275;-54
2022/08/23 08:49:44;;;;;;;;;;;;;;;29.38;38.39;100854.78;1671575;86;21292;-53
2022/08/23 08:52:55;;;;;;;10.38;3.30;;;;;;;29.49;38.22;100856.98;1667751;86;20555;-54
2022/08/23 08:56:17;;;;;;;10.78;3.30;;;;;;;29.58;38.10;100842.54;1596544;88;21828;-54
2022/08/23 08:59:42;;;;;;;12.13;3.05;;;;;;;29.67;37.97;100849.33;1591921;88;21247;-54
2022/08/23 09:02:56;;;;;;;11.60;3.60;;;;;;;29.75;37.81;100839.66;1627285;88;21286;-53
2022/08/23 09:06:29;;;;;;;9.90;3.17;;;;;;;29.88;37.73;100836.75;1638067;85;21259;-56
2022/08/23 09:09:46;;;;;;;42.55;4.90;;;;;;;29.98;37.56;100843.20;1653942;85;21292;-55
2022/08/23 09:13:16;;;;;;;14.30;3.83;;;;;;;30.08;37.40;100847.34;1654802;85;21797;-56
2022/08/23 09:16:58;;;;;;;13.98;3.08;;;;;;;30.21;37.20;100842.48;1680025;85;21269;-55
2022/08/23 09:20:07;;;;;;;22.82;3.95;;;;;;;30.35;37.06;100844.09;1652246;87;21252;-57
2022/08/23 09:23:34;;;;;;;8.85;3.70;;;;;;;30.46;36.90;100857.82;1639664;87;21268;-55
2022/08/23 09:26:44;;;;;;;11.35;3.70;;;;;;;30.54;36.69;100852.12;1646687;85;21228;-55
2022/08/23 09:30:04;;;;;;;19.82;4.22;;;;;;;30.60;36.53;100864.48;1667294;85;21205;-56
2022/08/23 09:33:27;;;;;;;14.95;4.47;;;;;;;30.69;36.34;100843.48;1657552;85;21245;-56
2022/08/23 09:36:44;;;;;;;8.93;3.52;;;;;;;30.72;36.12;100845.72;1663590;84;21231;-55
2022/08/23 09:40:02;;;;;;;9.95;3.70;;;;;;;30.78;36.00;100850.20;1646937;86;21568;-56
2022/08/23 09:43:25;;;;;;;17.30;4.35;;;;;;;30.85;35.89;100866.27;1633814;88;21228;-55
2022/08/23 09:46:43;;;;;;;19.98;4.58;;;;;;;30.96;35.74;100859.92;1669291;85;21660;-52
2022/08/23 09:49:55;;;;;;;10.00;4.42;;;;;;;31.05;35.66;100853.91;1662408;85;21387;-54
2022/08/23 09:53:19;;;;;;;12.13;3.62;;;;;;;31.10;35.34;100854.69;1675974;84;21373;-54
2022/08/23 09:56:33;;;;;;;15.88;3.70;;;;;;;31.16;35.20;100849.23;1639408;86;21666;-53
2022/08/23 09:59:51;;;;;;;17.40;4.05;;;;;;;31.20;35.04;100845.23;1644511;87;21206;-54
2022/08/23 10:03:38;;;;;;;32.63;4.72;;;;;;;31.28;34.90;100837.50;1665222;85;21258;-55
2022/08/23 10:06:51;;;;;;;11.73;4.22;;;;;;;31.34;34.70;100847.64;1645384;85;21221;-56
2022/08/23 10:10:06;;;;;;;62.60;7.35;;;;;;;31.39;34.54;100839.09;1706859;83;21216;-55
2022/08/23 10:13:13;;;;;;;15.28;3.75;;;;;;;31.42;34.41;100848.39;1656617;84;21240;-57
2022/08/23 10:16:52;;;;;;;11.68;3.37;;;;;;;31.45;34.27;100852.03;1654192;85;21266;-59
2022/08/23 10:20:23;;;;;;;15.08;3.60;;;;;;;31.52;34.15;100845.44;1653957;86;21836;-59
2022/08/23 10:23:39;;;;;;;10.40;3.50;;;;;;;31.58;33.97;100842.25;1618307;87;21241;-59
2022/08/23 10:30:42;;;;;;;12.53;4.12;;;;;;;31.70;33.69;100851.13;1637580;86;21233;-59
2022/08/23 10:34:22;;;;;;;14.03;3.67;;;;;;;31.81;33.55;100848.98;1661110;85;21215;-59
2022/08/23 10:37:55;;;;;;;16.00;4.08;;;;;;;31.88;33.47;100850.34;1667499;86;21244;-58
2022/08/23 10:41:23;;;;;;;16.75;3.83;;;;;;;31.97;33.31;100845.67;1683703;85;21368;-57
2022/08/23 10:44:57;;;;;;;10.43;3.95;;;;;;;32.05;33.14;100840.48;1651433;85;21260;-59
2022/08/23 10:48:28;;;;;;;14.98;3.80;;;;;;;32.10;33.01;100846.89;1644104;87;21892;-57
2022/08/23 10:51:45;;;;;;;14.87;3.90;;;;;;;32.17;32.88;100841.70;1632254;86;21279;-59
2022/08/23 10:55:16;;;;;;;13.00;3.90;;;;;;;32.24;32.73;100839.30;1647744;86;21279;-58
2022/08/23 10:58:27;;;;;;;5.33;2.98;;;;;;;32.36;32.64;100827.48;1661556;85;21632;-61
2022/08/23 11:02:04;;;;;;;12.70;3.67;;;;;;;32.45;32.51;100819.42;1651616;85;21280;-58
2022/08/23 11:05:34;;;;;;;13.93;4.12;;;;;;;32.56;32.37;100835.67;1675264;83;21270;-58
2022/08/23 11:08:49;;;;;;;10.60;3.70;;;;;;;32.65;32.20;100827.56;1640050;87;21240;-59
2022/08/23 11:12:11;;;;;;;12.63;3.60;;;;;;;32.76;32.06;100836.14;1670836;83;21226;-57
2022/08/23 11:15:31;;;;;;;15.38;3.95;;;;;;;32.85;31.96;100824.94;1640490;87;21299;-57
2022/08/23 11:18:53;;;;;;;9.95;3.08;;;;;;;32.94;31.77;100832.45;1656118;85;21268;-56
2022/08/23 11:22:04;;;;;;;10.85;3.75;;;;;;;33.00;31.63;100817.00;1658233;86;21258;-57
2022/08/23 11:25:25;;;;;;;14.05;3.80;;;;;;;33.11;31.56;100825.57;1655109;86;21588;-60
2022/08/23 11:28:39;;;;;;;10.25;3.72;;;;;;;33.24;31.42;100823.32;1668117;86;21217;-58
2022/08/23 11:32:13;;;;;;;15.50;3.40;;;;;;;33.32;31.26;100821.17;1678805;84;21212;-57
2022/08/23 11:35:42;;;;;;;6.92;3.22;;;;;;;33.38;31.12;100836.08;1672654;85;21740;-57
2022/08/23 11:39:01;;;;;;;13.55;3.30;;;;;;;33.42;30.94;100815.03;1676726;85;21225;-55
2022/08/23 11:42:09;;;;;;;9.50;3.20;;;;;;;33.41;30.75;100818.48;1672755;85;21870;-55
2022/08/23 11:45:37;;;;;;;9.73;3.50;;;;;;;33.40;30.57;100823.05;1655332;86;21837;-55
2022/08/23 11:48:48;;;;;;;11.83;3.72;;;;;;;33.38;30.48;100827.00;1656769;85;21211;-52
2022/08/23 11:52:35;;;;;;;16.23;3.80;;;;;;;33.44;30.35;100819.83;1677259;83;21331;-54
2022/08/23 11:55:56;;;;;;;15.70;3.60;;;;;;;33.43;30.23;100813.90;1613102;87;21260;-55
2022/08/23 11:59:33;;;;;;;10.95;3.85;;;;;;;33.42;30.10;100825.83;1605410;88;21624;-57
2022/08/23 12:02:49;;;;;;;11.55;3.50;;;;;;;33.44;30.00;100821.25;1626570;85;21252;-58
2022/08/23 12:06:16;;;;;;;8.00;3.55;;;;;;;33.44;29.93;100815.00;1677790;83;21207;-55
2022/08/23 12:09:32;;;;;;;6.62;3.55;;;;;;;33.45;29.82;100820.08;1667705;85;21376;-59
2022/08/23 12:12:43;;;;;;;8.80;3.12;;;;;;;33.43;29.71;100835.20;1613529;88;21296;-59
2022/08/23 12:16:27;;;;;;;7.95;4.00;;;;;;;33.40;29.66;100821.63;1655578;86;21324;-59
2022/08/23 12:19:45;;;;;;;13.95;3.60;;;;;;;33.41;29.61;100821.88;1614952;87;21414;-57
